Aérodrome :
LOGIN :

S'inscrire | Disclaimer

   EN    FR    IT 

 










Légende :    VFR   VFR Marginal   IFR   IFR Intensif   IFR Très Intensif
Visi : 
Plafond : 
>= 8 km
>= 3000ft
5 à 8 km
1000 à 3000 ft
1500m à 5 km
500 à 1000 ft
800 à 1500m
200 à 500 ft
< 800m
< 200 ft
Symboles :   Orages  Brouillard  Fortes neiges  Fortes précipitations  Vent > 20 kt
SIGMETs :   Divers  Orages  Givrage  Turbulence  Onde Orograph.  Cendres Volcan.







- Altitude de l'aérodrome : 1475 ft


LSZC - Buochs Stans

DERNIER METAR :
  • 170920Z VRB03KT 9999 FEW060 23/15 Q1018

METARs EXPIRÉS :
  • 170850Z 09003KT 9999 FEW060 22/15 Q1018
  • 170820Z VRB01KT 9999 FEW060 22/14 Q1018
  • 170750Z VRB02KT 9999 FEW060 SCT240 21/12 Q1018
  • 170720Z VRB02KT 9999 FEW070 19/14 Q1017
  • 170650Z VRB02KT 9999 SCT070 18/14 Q1017

TAF TAF LSZC
Valide du 17 à 09h jusqu'au 17 à 18h UTC


170825Z 1709/1718 VRB03KT 9999 FEW070TCU
TEMPO 1710/1718 SHRA
PROB30
TEMPO 1712/1718 05015G28KT 4000 TSRA SCT050CB
Pas de NOTAMs connus pour ce terrain.



MET'MAP, la Météo Aéronautique d'un coup d'oeil ! - Copyright ORBIFLY Décembre 2007 - Disclaimer

ORBIFLY MET'MAP TEAM :

Programmation & Développement : Alexandra Zaïnal
Conception & Développement : Baudouin d'Aumeries
Co-Programmation & Développement : Marc-Olivier Méhu
Soutien technique & logistique : Manuel Goepfert

Contact : metmap@orbifly.com




SOURCES & CREDITS :

   NOAA